Time;durP1;ratioP1;P1;durP2;ratioP2;P2;SDS_P1;SDS_P2;PMS_P1;PMS_P2;Temp;Humidity;BMP_temperature;BMP_pressure;BME280_temperature;BME280_humidity;BME280_pressure;Samples;Min_cycle;Max_cycle;Signal;HPM_P1;HPM_P2
2023/05/12 00:02:00;;;;;;;0.70;0.70;;;;;;;;;;4939414;29;20436;-76
2023/05/12 00:04:27;;;;;;;0.73;0.73;;;;;;;;;;4950103;29;20444;-76
2023/05/12 00:06:54;;;;;;;1.33;1.23;;;;;;;;;;4940949;29;20469;-76
2023/05/12 00:09:21;;;;;;;0.60;0.60;;;;;;;;;;4937954;29;20453;-77
2023/05/12 00:11:48;;;;;;;0.60;0.60;;;;;;;;;;4932870;29;20953;-75
2023/05/12 00:14:17;;;;;;;0.80;0.80;;;;;;;;;;4939683;29;20445;-76
2023/05/12 00:16:43;;;;;;;1.73;1.63;;;;;;;;;;4939428;29;20476;-76
2023/05/12 00:19:10;;;;;;;0.83;0.83;;;;;;;;;;4937922;29;20475;-77
2023/05/12 00:21:37;;;;;;;0.60;0.60;;;;;;;;;;4941210;29;20973;-77
2023/05/12 00:24:05;;;;;;;0.70;0.70;;;;;;;;;;4942815;29;20449;-75
2023/05/12 00:26:32;;;;;;;0.80;0.80;;;;;;;;;;4940078;29;20444;-76
2023/05/12 00:28:59;;;;;;;0.67;0.67;;;;;;;;;;4941757;29;20438;-76
2023/05/12 00:31:28;;;;;;;0.70;0.70;;;;;;;;;;4941790;29;20448;-75
2023/05/12 00:33:55;;;;;;;0.70;0.70;;;;;;;;;;4939441;29;20444;-76
2023/05/12 00:36:22;;;;;;;2.13;1.37;;;;;;;;;;4939670;29;20563;-75
2023/05/12 00:38:48;;;;;;;0.60;0.60;;;;;;;;;;4926488;29;20528;-76
2023/05/12 00:41:15;;;;;;;0.60;0.60;;;;;;;;;;4958139;28;20449;-77
2023/05/12 00:43:42;;;;;;;0.60;0.60;;;;;;;;;;4938123;29;20484;-76
2023/05/12 00:46:10;;;;;;;1.93;1.13;;;;;;;;;;4924671;29;20925;-76
2023/05/12 00:48:39;;;;;;;1.23;1.13;;;;;;;;;;4941518;29;20988;-76
2023/05/12 00:51:06;;;;;;;1.40;1.17;;;;;;;;;;4927227;29;20467;-74
2023/05/12 00:53:33;;;;;;;1.03;0.97;;;;;;;;;;4940932;29;20477;-74
2023/05/12 00:56:16;;;;;;;0.60;0.60;;;;;;;;;;4937047;29;20481;-76
2023/05/12 00:58:43;;;;;;;0.90;0.90;;;;;;;;;;4937938;29;20483;-74
2023/05/12 01:01:11;;;;;;;1.47;1.27;;;;;;;;;;4940424;29;20456;-76
2023/05/12 01:03:40;;;;;;;0.67;0.67;;;;;;;;;;4939922;29;20467;-76
2023/05/12 01:06:11;;;;;;;1.17;1.10;;;;;;;;;;4940404;29;20478;-76
2023/05/12 01:08:40;;;;;;;0.70;0.70;;;;;;;;;;4942066;29;20544;-75
2023/05/12 01:11:08;;;;;;;0.70;0.70;;;;;;;;;;4923365;29;20496;-74
2023/05/12 01:13:36;;;;;;;0.70;0.70;;;;;;;;;;4937926;29;20463;-74
2023/05/12 01:16:03;;;;;;;0.60;0.60;;;;;;;;;;4938320;28;20490;-75
2023/05/12 01:18:33;;;;;;;0.80;0.80;;;;;;;;;;4936841;29;20457;-76
2023/05/12 01:21:01;;;;;;;0.70;0.70;;;;;;;;;;4941013;28;20782;-76
2023/05/12 01:23:33;;;;;;;0.70;0.70;;;;;;;;;;4937948;29;20970;-76
2023/05/12 01:26:04;;;;;;;2.93;2.67;;;;;;;;;;4936502;29;20815;-74
2023/05/12 01:28:31;;;;;;;0.70;0.70;;;;;;;;;;4921654;29;20803;-74
2023/05/12 01:30:58;;;;;;;1.20;1.10;;;;;;;;;;4937644;29;20499;-74
2023/05/12 01:33:25;;;;;;;0.70;0.70;;;;;;;;;;4934774;29;21021;-75
2023/05/12 01:35:51;;;;;;;0.70;0.70;;;;;;;;;;4925357;29;21040;-75
2023/05/12 01:38:19;;;;;;;0.60;0.60;;;;;;;;;;4944181;29;20539;-76
2023/05/12 01:40:46;;;;;;;0.70;0.70;;;;;;;;;;4939291;29;20892;-76
2023/05/12 01:43:16;;;;;;;0.60;0.60;;;;;;;;;;4938046;29;20526;-74
2023/05/12 01:45:45;;;;;;;0.60;0.60;;;;;;;;;;4947758;29;20444;-75
2023/05/12 01:48:12;;;;;;;0.80;0.80;;;;;;;;;;4941099;29;20489;-76
2023/05/12 01:50:41;;;;;;;0.70;0.70;;;;;;;;;;4932698;29;20963;-76
2023/05/12 01:53:12;;;;;;;1.87;1.77;;;;;;;;;;4933474;29;20500;-75
2023/05/12 01:55:39;;;;;;;0.60;0.60;;;;;;;;;;4924265;29;20876;-75
2023/05/12 01:58:06;;;;;;;3.03;1.13;;;;;;;;;;4935646;28;21062;-76
2023/05/12 02:00:35;;;;;;;0.60;0.60;;;;;;;;;;4921562;29;20530;-75
2023/05/12 02:03:04;;;;;;;0.67;0.67;;;;;;;;;;4927472;29;20450;-75
2023/05/12 02:05:31;;;;;;;0.70;0.70;;;;;;;;;;4934505;29;20465;-76
2023/05/12 02:08:00;;;;;;;1.47;1.37;;;;;;;;;;4921007;29;20479;-76
2023/05/12 02:10:27;;;;;;;0.70;0.70;;;;;;;;;;4937835;29;20462;-75
2023/05/12 02:12:54;;;;;;;0.60;0.60;;;;;;;;;;4949436;28;20445;-76
2023/05/12 02:15:21;;;;;;;0.77;0.77;;;;;;;;;;4936646;29;20989;-76
2023/05/12 02:17:52;;;;;;;0.70;0.70;;;;;;;;;;4919508;29;20528;-75
2023/05/12 02:20:20;;;;;;;0.60;0.60;;;;;;;;;;4939906;29;20819;-76
2023/05/12 02:22:47;;;;;;;0.60;0.60;;;;;;;;;;4937263;28;20494;-76
2023/05/12 02:25:14;;;;;;;0.70;0.70;;;;;;;;;;4943105;29;20936;-76
2023/05/12 02:27:43;;;;;;;1.03;0.97;;;;;;;;;;4947523;28;20459;-74
2023/05/12 02:30:11;;;;;;;0.60;0.60;;;;;;;;;;4940298;29;20469;-76
2023/05/12 02:32:40;;;;;;;0.70;0.70;;;;;;;;;;4926690;29;20457;-76
2023/05/12 02:35:09;;;;;;;0.60;0.60;;;;;;;;;;4951745;28;20516;-76
2023/05/12 02:37:37;;;;;;;0.70;0.70;;;;;;;;;;4954062;28;20862;-74
2023/05/12 02:40:05;;;;;;;1.47;1.30;;;;;;;;;;4940548;29;20458;-76
2023/05/12 02:42:34;;;;;;;0.70;0.70;;;;;;;;;;4939234;29;20830;-76
2023/05/12 02:45:01;;;;;;;0.80;0.80;;;;;;;;;;4958146;28;20818;-76
2023/05/12 02:47:31;;;;;;;0.60;0.60;;;;;;;;;;4943679;29;20966;-76
2023/05/12 02:49:58;;;;;;;0.80;0.80;;;;;;;;;;4942548;29;20805;-75
2023/05/12 02:52:27;;;;;;;0.80;0.80;;;;;;;;;;4939206;29;20958;-76
2023/05/12 02:54:55;;;;;;;2.80;2.20;;;;;;;;;;4942205;29;21042;-75
2023/05/12 02:57:21;;;;;;;0.60;0.60;;;;;;;;;;4943707;29;20484;-76
2023/05/12 02:59:48;;;;;;;0.70;0.70;;;;;;;;;;4951258;28;20454;-76
2023/05/12 03:02:15;;;;;;;0.60;0.60;;;;;;;;;;4948871;28;20515;-76
2023/05/12 03:04:42;;;;;;;0.70;0.70;;;;;;;;;;4944082;28;20883;-76
2023/05/12 03:07:09;;;;;;;1.30;1.20;;;;;;;;;;4925093;29;20475;-74
2023/05/12 03:09:37;;;;;;;0.93;0.93;;;;;;;;;;4943232;29;20455;-76
2023/05/12 03:12:04;;;;;;;1.00;1.00;;;;;;;;;;4925475;29;20449;-76
2023/05/12 03:14:31;;;;;;;0.70;0.70;;;;;;;;;;4921284;29;20446;-76
2023/05/12 03:16:58;;;;;;;0.70;0.70;;;;;;;;;;4944325;28;20477;-75
2023/05/12 03:19:26;;;;;;;0.70;0.70;;;;;;;;;;4943513;29;20454;-76
2023/05/12 03:21:53;;;;;;;0.70;0.70;;;;;;;;;;4938529;29;20575;-76
2023/05/12 03:24:20;;;;;;;0.60;0.60;;;;;;;;;;4937106;29;20502;-75
2023/05/12 03:26:49;;;;;;;0.60;0.60;;;;;;;;;;4936993;29;20468;-76
2023/05/12 03:29:16;;;;;;;0.70;0.70;;;;;;;;;;4937121;29;20475;-75
2023/05/12 03:31:42;;;;;;;0.60;0.60;;;;;;;;;;4942471;29;20859;-75
2023/05/12 03:34:10;;;;;;;0.70;0.70;;;;;;;;;;4938586;29;20548;-76
2023/05/12 03:36:36;;;;;;;0.60;0.60;;;;;;;;;;4941193;29;20521;-73
2023/05/12 03:39:03;;;;;;;0.67;0.67;;;;;;;;;;4941571;28;20474;-75
2023/05/12 03:41:32;;;;;;;1.37;1.00;;;;;;;;;;4938236;29;20509;-76
2023/05/12 03:44:00;;;;;;;0.60;0.60;;;;;;;;;;4940797;29;20686;-76
2023/05/12 03:46:28;;;;;;;0.60;0.60;;;;;;;;;;4943038;29;20964;-74
2023/05/12 03:48:55;;;;;;;0.63;0.63;;;;;;;;;;4946560;28;20452;-76
2023/05/12 03:51:22;;;;;;;0.60;0.60;;;;;;;;;;4942613;28;20455;-76
2023/05/12 03:53:49;;;;;;;0.60;0.60;;;;;;;;;;4934010;29;20459;-74
2023/05/12 03:56:17;;;;;;;0.73;0.73;;;;;;;;;;4935690;29;20434;-74
2023/05/12 03:58:46;;;;;;;0.60;0.60;;;;;;;;;;4938160;28;20459;-75
2023/05/12 04:01:16;;;;;;;0.70;0.70;;;;;;;;;;4946249;28;20456;-76
2023/05/12 04:03:42;;;;;;;0.70;0.70;;;;;;;;;;4937083;29;20507;-75
2023/05/12 04:06:09;;;;;;;0.70;0.70;;;;;;;;;;4942381;28;20506;-75
2023/05/12 04:08:36;;;;;;;0.60;0.60;;;;;;;;;;4927519;29;20457;-76
2023/05/12 04:11:08;;;;;;;0.60;0.60;;;;;;;;;;4932714;29;20930;-76
2023/05/12 04:13:35;;;;;;;0.70;0.70;;;;;;;;;;4946378;29;20799;-77
2023/05/12 04:16:02;;;;;;;0.70;0.70;;;;;;;;;;4941779;29;20981;-76
2023/05/12 04:18:31;;;;;;;2.30;1.67;;;;;;;;;;4931205;29;20484;-76
2023/05/12 04:20:58;;;;;;;0.60;0.60;;;;;;;;;;4918551;29;20449;-77
2023/05/12 04:23:25;;;;;;;0.63;0.60;;;;;;;;;;4942386;29;20532;-75
2023/05/12 04:25:52;;;;;;;0.70;0.70;;;;;;;;;;4926568;29;20462;-75
2023/05/12 04:28:19;;;;;;;0.60;0.60;;;;;;;;;;4932996;29;20455;-74
2023/05/12 04:30:46;;;;;;;0.70;0.70;;;;;;;;;;4929770;29;20484;-76
2023/05/12 04:33:13;;;;;;;0.60;0.60;;;;;;;;;;4935118;29;20455;-76
2023/05/12 04:35:44;;;;;;;0.80;0.80;;;;;;;;;;4926564;29;20483;-74
2023/05/12 04:38:12;;;;;;;0.60;0.60;;;;;;;;;;4934285;29;20482;-74
2023/05/12 04:40:39;;;;;;;0.80;0.80;;;;;;;;;;4941694;29;21018;-76
2023/05/12 04:43:07;;;;;;;0.70;0.70;;;;;;;;;;4916138;29;20457;-77
2023/05/12 04:45:34;;;;;;;0.70;0.70;;;;;;;;;;4937705;28;20456;-74
2023/05/12 04:48:01;;;;;;;0.60;0.60;;;;;;;;;;4942333;28;20448;-75
2023/05/12 04:50:28;;;;;;;0.70;0.67;;;;;;;;;;4940227;28;20506;-76
2023/05/12 04:52:56;;;;;;;0.60;0.60;;;;;;;;;;4940074;29;21047;-76
2023/05/12 04:55:24;;;;;;;0.60;0.60;;;;;;;;;;4942020;29;20435;-75
2023/05/12 04:57:53;;;;;;;0.70;0.70;;;;;;;;;;4934830;29;20982;-75
2023/05/12 05:00:19;;;;;;;0.60;0.60;;;;;;;;;;4942381;29;20458;-76
2023/05/12 05:02:47;;;;;;;0.70;0.70;;;;;;;;;;4933906;29;20467;-76
2023/05/12 05:05:15;;;;;;;0.70;0.70;;;;;;;;;;4944009;28;20879;-74
2023/05/12 05:07:42;;;;;;;0.70;0.70;;;;;;;;;;4942893;29;20887;-76
2023/05/12 05:10:11;;;;;;;0.63;0.63;;;;;;;;;;4919512;29;20461;-76
2023/05/12 05:12:40;;;;;;;0.60;0.60;;;;;;;;;;4934301;29;20517;-74
2023/05/12 05:15:10;;;;;;;0.70;0.70;;;;;;;;;;4941466;29;20457;-76
2023/05/12 05:17:37;;;;;;;0.60;0.60;;;;;;;;;;4940163;29;20917;-76
2023/05/12 05:20:07;;;;;;;0.60;0.60;;;;;;;;;;4944188;28;20965;-77
2023/05/12 05:22:38;;;;;;;0.60;0.60;;;;;;;;;;4936502;29;20991;-75
2023/05/12 05:25:07;;;;;;;0.70;0.70;;;;;;;;;;4940606;29;20443;-74
2023/05/12 05:27:37;;;;;;;0.70;0.70;;;;;;;;;;4937823;29;20442;-77
2023/05/12 05:30:07;;;;;;;0.60;0.60;;;;;;;;;;4944683;29;20826;-77
2023/05/12 05:32:38;;;;;;;0.70;0.70;;;;;;;;;;4938296;29;20889;-77
2023/05/12 05:35:07;;;;;;;0.60;0.60;;;;;;;;;;4948154;28;20497;-76
2023/05/12 05:37:40;;;;;;;0.70;0.70;;;;;;;;;;4932742;29;20497;-78
2023/05/12 05:40:08;;;;;;;0.60;0.60;;;;;;;;;;4923902;29;20485;-75
2023/05/12 05:42:37;;;;;;;0.70;0.70;;;;;;;;;;4936959;29;20447;-75
2023/05/12 05:45:05;;;;;;;0.70;0.70;;;;;;;;;;4944890;28;20464;-76
2023/05/12 05:47:33;;;;;;;0.60;0.60;;;;;;;;;;4937371;29;20454;-75
2023/05/12 05:50:00;;;;;;;0.70;0.70;;;;;;;;;;4907891;29;20471;-77
2023/05/12 05:52:29;;;;;;;0.70;0.70;;;;;;;;;;4940220;29;20567;-76
2023/05/12 05:54:56;;;;;;;0.60;0.60;;;;;;;;;;4940001;29;20466;-76
2023/05/12 05:57:27;;;;;;;0.70;0.70;;;;;;;;;;4939483;29;21024;-80
2023/05/12 05:59:57;;;;;;;0.60;0.60;;;;;;;;;;4944751;29;20471;-78
2023/05/12 06:02:25;;;;;;;0.70;0.70;;;;;;;;;;4942179;29;20464;-75
2023/05/12 06:04:52;;;;;;;0.90;0.90;;;;;;;;;;4948105;28;20471;-75
2023/05/12 06:07:20;;;;;;;0.70;0.70;;;;;;;;;;4943353;29;20467;-76
2023/05/12 06:09:48;;;;;;;0.93;0.87;;;;;;;;;;4949153;28;20464;-78
2023/05/12 06:12:14;;;;;;;0.60;0.60;;;;;;;;;;4943230;29;20505;-78
2023/05/12 06:14:41;;;;;;;0.70;0.70;;;;;;;;;;4950035;28;20481;-76
2023/05/12 06:17:09;;;;;;;0.70;0.70;;;;;;;;;;4940865;29;20528;-78
2023/05/12 06:19:38;;;;;;;0.60;0.60;;;;;;;;;;4943731;29;20503;-76
2023/05/12 06:22:05;;;;;;;0.60;0.60;;;;;;;;;;4954063;28;20466;-77
2023/05/12 06:24:32;;;;;;;0.60;0.60;;;;;;;;;;4947338;29;20459;-78
2023/05/12 06:27:00;;;;;;;0.70;0.67;;;;;;;;;;4923585;29;20965;-78
2023/05/12 06:29:27;;;;;;;0.60;0.60;;;;;;;;;;4927321;29;20548;-75
2023/05/12 06:31:54;;;;;;;0.60;0.60;;;;;;;;;;4947030;29;20538;-76
2023/05/12 06:34:23;;;;;;;0.70;0.60;;;;;;;;;;4937443;29;20452;-78
2023/05/12 06:36:49;;;;;;;0.70;0.60;;;;;;;;;;4930397;29;20745;-80
2023/05/12 06:39:20;;;;;;;0.80;0.80;;;;;;;;;;4956546;29;20499;-78
2023/05/12 06:41:47;;;;;;;0.70;0.60;;;;;;;;;;4954331;28;20440;-77
2023/05/12 06:44:20;;;;;;;0.80;0.80;;;;;;;;;;4927812;29;20480;-80
2023/05/12 06:46:50;;;;;;;0.70;0.70;;;;;;;;;;4956101;28;20452;-77
2023/05/12 06:49:18;;;;;;;0.60;0.60;;;;;;;;;;4940566;29;20472;-78
2023/05/12 06:51:46;;;;;;;0.70;0.70;;;;;;;;;;4944611;29;20526;-79
2023/05/12 06:54:13;;;;;;;0.60;0.60;;;;;;;;;;4945939;29;20445;-77
2023/05/12 06:56:40;;;;;;;0.70;0.60;;;;;;;;;;4941464;29;20487;-81
2023/05/12 06:59:07;;;;;;;0.60;0.60;;;;;;;;;;4943263;29;20484;-82
2023/05/12 07:01:34;;;;;;;0.70;0.70;;;;;;;;;;4944105;29;20548;-76
2023/05/12 07:04:06;;;;;;;0.70;0.70;;;;;;;;;;4943385;29;20452;-78
2023/05/12 07:06:33;;;;;;;0.70;0.70;;;;;;;;;;4942949;29;20512;-80
2023/05/12 07:09:02;;;;;;;1.57;1.47;;;;;;;;;;4939255;29;20476;-82
2023/05/12 07:11:30;;;;;;;0.70;0.70;;;;;;;;;;4945581;29;20452;-81
2023/05/12 07:13:57;;;;;;;0.70;0.70;;;;;;;;;;4951775;29;20458;-80
2023/05/12 07:16:24;;;;;;;0.80;0.80;;;;;;;;;;4937369;29;20444;-82
2023/05/12 07:18:51;;;;;;;0.70;0.70;;;;;;;;;;4939896;29;20494;-82
2023/05/12 07:21:18;;;;;;;0.70;0.70;;;;;;;;;;4949142;29;20456;-81
2023/05/12 07:23:45;;;;;;;0.70;0.60;;;;;;;;;;4935573;29;20487;-82
2023/05/12 07:26:14;;;;;;;0.70;0.70;;;;;;;;;;4937852;29;20567;-81
2023/05/12 07:28:42;;;;;;;0.70;0.70;;;;;;;;;;4933416;29;20425;-82
2023/05/12 07:31:10;;;;;;;0.80;0.80;;;;;;;;;;4938168;29;20489;-79
2023/05/12 07:33:38;;;;;;;0.70;0.60;;;;;;;;;;4936956;29;20465;-76
2023/05/12 07:36:07;;;;;;;0.73;0.73;;;;;;;;;;4937582;28;20529;-80
2023/05/12 07:38:35;;;;;;;0.70;0.70;;;;;;;;;;4939903;29;20576;-78
2023/05/12 07:41:03;;;;;;;0.70;0.70;;;;;;;;;;4942234;29;20479;-81
2023/05/12 07:43:32;;;;;;;0.80;0.80;;;;;;;;;;4941547;29;20437;-80
2023/05/12 07:46:00;;;;;;;0.80;0.80;;;;;;;;;;4958048;28;21015;-81
2023/05/12 07:48:29;;;;;;;0.70;0.70;;;;;;;;;;4944834;29;20429;-79
2023/05/12 07:50:56;;;;;;;0.70;0.60;;;;;;;;;;4943381;29;20448;-81
2023/05/12 07:53:23;;;;;;;0.80;0.80;;;;;;;;;;4940295;29;20768;-81
2023/05/12 07:55:50;;;;;;;0.70;0.70;;;;;;;;;;4942965;29;20445;-81
2023/05/12 07:58:17;;;;;;;0.70;0.70;;;;;;;;;;4937997;29;20468;-80
2023/05/12 08:00:48;;;;;;;0.80;0.80;;;;;;;;;;4943345;29;20507;-80
2023/05/12 08:03:15;;;;;;;0.70;0.60;;;;;;;;;;4943548;29;20523;-79
2023/05/12 08:05:42;;;;;;;0.70;0.70;;;;;;;;;;4940428;29;20435;-81
2023/05/12 08:08:15;;;;;;;0.73;0.73;;;;;;;;;;4949492;29;20473;-82
2023/05/12 08:10:42;;;;;;;0.70;0.70;;;;;;;;;;4936985;29;20433;-82
2023/05/12 08:13:09;;;;;;;0.70;0.60;;;;;;;;;;4940097;28;20456;-81
2023/05/12 08:15:35;;;;;;;0.70;0.70;;;;;;;;;;4936783;29;20441;-78
2023/05/12 08:18:05;;;;;;;0.70;0.70;;;;;;;;;;4943331;29;21047;-80
2023/05/12 08:20:32;;;;;;;0.70;0.70;;;;;;;;;;4940306;28;20543;-80
2023/05/12 08:23:00;;;;;;;0.70;0.70;;;;;;;;;;4941368;29;20531;-81
2023/05/12 08:25:29;;;;;;;0.70;0.63;;;;;;;;;;4941103;29;20416;-79
2023/05/12 08:27:58;;;;;;;0.70;0.60;;;;;;;;;;4936589;29;20450;-80
2023/05/12 08:30:26;;;;;;;0.70;0.70;;;;;;;;;;4918238;29;20494;-79
2023/05/12 08:32:55;;;;;;;0.70;0.70;;;;;;;;;;4940269;29;20543;-80
2023/05/12 08:35:25;;;;;;;0.70;0.70;;;;;;;;;;4940331;29;20457;-81
2023/05/12 08:37:53;;;;;;;0.70;0.70;;;;;;;;;;4940116;29;21578;-80
2023/05/12 08:40:25;;;;;;;0.70;0.70;;;;;;;;;;4938070;29;20527;-80
2023/05/12 08:42:54;;;;;;;0.70;0.70;;;;;;;;;;4925525;29;20457;-79
2023/05/12 08:45:22;;;;;;;0.80;0.80;;;;;;;;;;4937812;29;20462;-79
2023/05/12 08:47:50;;;;;;;0.73;0.73;;;;;;;;;;4934465;29;20512;-79
2023/05/12 08:50:20;;;;;;;0.70;0.70;;;;;;;;;;4943536;29;20442;-79
2023/05/12 08:52:49;;;;;;;0.77;0.77;;;;;;;;;;4936547;29;20467;-79
2023/05/12 08:55:16;;;;;;;0.70;0.70;;;;;;;;;;4943583;29;20517;-80
2023/05/12 08:57:47;;;;;;;0.70;0.60;;;;;;;;;;4939971;29;20480;-79
2023/05/12 09:00:15;;;;;;;0.70;0.70;;;;;;;;;;4940353;29;20409;-80
2023/05/12 09:02:42;;;;;;;0.73;0.73;;;;;;;;;;4940759;28;20860;-82
2023/05/12 09:05:20;;;;;;;0.80;0.80;;;;;;;;;;4936908;29;20447;-78
2023/05/12 09:07:50;;;;;;;0.70;0.60;;;;;;;;;;4904006;29;20841;-80
2023/05/12 09:10:20;;;;;;;0.70;0.70;;;;;;;;;;4942331;29;20404;-80
2023/05/12 09:13:02;;;;;;;0.70;0.70;;;;;;;;;;4940993;28;20938;-78
2023/05/12 09:15:32;;;;;;;0.70;0.70;;;;;;;;;;4937620;29;20462;-76
2023/05/12 09:18:00;;;;;;;0.90;0.90;;;;;;;;;;4934763;29;20584;-82
2023/05/12 09:20:27;;;;;;;0.70;0.70;;;;;;;;;;4937339;29;20459;-81
2023/05/12 09:23:09;;;;;;;0.70;0.70;;;;;;;;;;4933965;29;20459;-82
2023/05/12 09:25:37;;;;;;;0.70;0.60;;;;;;;;;;4923391;29;20461;-80
2023/05/12 09:28:06;;;;;;;0.70;0.70;;;;;;;;;;4939490;29;20757;-79
2023/05/12 09:30:36;;;;;;;0.70;0.60;;;;;;;;;;4933395;29;20439;-81
2023/05/12 09:33:07;;;;;;;0.70;0.70;;;;;;;;;;4940721;28;20776;-80
2023/05/12 09:35:39;;;;;;;0.70;0.70;;;;;;;;;;4940714;29;20443;-81
2023/05/12 09:38:09;;;;;;;0.70;0.70;;;;;;;;;;4941220;28;20989;-80
2023/05/12 09:40:37;;;;;;;0.70;0.60;;;;;;;;;;4926048;29;20775;-79
2023/05/12 09:43:06;;;;;;;0.70;0.67;;;;;;;;;;4938522;29;20423;-78
2023/05/12 09:45:34;;;;;;;0.80;0.80;;;;;;;;;;4926283;29;20468;-81
2023/05/12 09:48:09;;;;;;;0.70;0.70;;;;;;;;;;4940762;29;20431;-80
2023/05/12 09:50:43;;;;;;;0.80;0.80;;;;;;;;;;4945123;29;20872;-78
2023/05/12 09:53:16;;;;;;;1.03;0.93;;;;;;;;;;4940011;29;20443;-82
2023/05/12 09:55:43;;;;;;;0.70;0.60;;;;;;;;;;4934232;29;20413;-80
2023/05/12 09:58:10;;;;;;;0.70;0.70;;;;;;;;;;4933340;29;20441;-80
2023/05/12 10:00:40;;;;;;;0.70;0.60;;;;;;;;;;4937519;29;20942;-80
2023/05/12 10:03:13;;;;;;;0.70;0.60;;;;;;;;;;4918218;29;20420;-80
2023/05/12 10:05:44;;;;;;;0.70;0.60;;;;;;;;;;4937814;29;20420;-78
2023/05/12 10:08:12;;;;;;;0.70;0.60;;;;;;;;;;4936966;29;20830;-82
2023/05/12 10:10:41;;;;;;;0.70;0.60;;;;;;;;;;4937432;29;20493;-78
2023/05/12 10:13:12;;;;;;;0.70;0.63;;;;;;;;;;4943183;29;20552;-80
2023/05/12 10:15:40;;;;;;;0.70;0.70;;;;;;;;;;4931258;29;20766;-78
2023/05/12 10:18:07;;;;;;;0.70;0.60;;;;;;;;;;4935851;29;20461;-79
2023/05/12 10:20:35;;;;;;;0.70;0.60;;;;;;;;;;4925663;29;20481;-80
2023/05/12 10:23:02;;;;;;;0.70;0.60;;;;;;;;;;4936437;29;20551;-78
2023/05/12 10:25:29;;;;;;;0.70;0.60;;;;;;;;;;4943885;29;20479;-79
2023/05/12 10:28:00;;;;;;;0.70;0.60;;;;;;;;;;4938993;29;20452;-81
2023/05/12 10:30:26;;;;;;;0.70;0.60;;;;;;;;;;4939831;28;21279;-79
2023/05/12 10:32:56;;;;;;;0.80;0.80;;;;;;;;;;4922567;29;20462;-76
2023/05/12 10:35:31;;;;;;;0.70;0.60;;;;;;;;;;4939268;29;20526;-77
2023/05/12 10:37:59;;;;;;;0.70;0.60;;;;;;;;;;4917551;28;21266;-79
2023/05/12 10:40:29;;;;;;;0.70;0.60;;;;;;;;;;4919561;29;20863;-77
2023/05/12 10:43:00;;;;;;;0.70;0.60;;;;;;;;;;4940809;29;20440;-78
2023/05/12 10:45:33;;;;;;;0.70;0.60;;;;;;;;;;4948314;29;20438;-81
2023/05/12 10:48:05;;;;;;;0.70;0.60;;;;;;;;;;4940259;29;20445;-79
2023/05/12 10:50:32;;;;;;;0.70;0.70;;;;;;;;;;4925663;29;20456;-79
2023/05/12 10:52:59;;;;;;;0.80;0.70;;;;;;;;;;4938588;29;20461;-81
2023/05/12 10:55:31;;;;;;;0.70;0.60;;;;;;;;;;4940497;29;20431;-81
2023/05/12 10:58:08;;;;;;;0.70;0.60;;;;;;;;;;4923293;29;20508;-81
2023/05/12 11:00:43;;;;;;;0.80;0.80;;;;;;;;;;4941695;29;21010;-78
2023/05/12 11:03:12;;;;;;;0.80;0.80;;;;;;;;;;4941360;29;20411;-78
2023/05/12 11:05:43;;;;;;;0.70;0.70;;;;;;;;;;4938726;29;20783;-77
2023/05/12 11:08:12;;;;;;;0.70;0.70;;;;;;;;;;4937751;29;20484;-78
2023/05/12 11:10:41;;;;;;;0.70;0.60;;;;;;;;;;4943782;29;20470;-80
2023/05/12 11:13:11;;;;;;;0.70;0.60;;;;;;;;;;4941155;29;21008;-78
2023/05/12 11:15:38;;;;;;;1.37;1.27;;;;;;;;;;4941244;29;20531;-77
2023/05/12 11:18:07;;;;;;;0.70;0.60;;;;;;;;;;4924926;29;20794;-77
2023/05/12 11:20:34;;;;;;;0.70;0.70;;;;;;;;;;4939768;29;20504;-77
2023/05/12 11:23:02;;;;;;;0.70;0.60;;;;;;;;;;4944283;29;20551;-75
2023/05/12 11:25:30;;;;;;;0.80;0.70;;;;;;;;;;4936931;29;20461;-78
2023/05/12 11:27:57;;;;;;;0.70;0.60;;;;;;;;;;4937210;29;20539;-76
2023/05/12 11:30:25;;;;;;;0.70;0.60;;;;;;;;;;4937212;28;20445;-75
2023/05/12 11:32:58;;;;;;;0.70;0.60;;;;;;;;;;4928319;29;20448;-79
2023/05/12 11:35:29;;;;;;;0.80;0.70;;;;;;;;;;4927571;29;20484;-79
2023/05/12 11:37:57;;;;;;;0.70;0.60;;;;;;;;;;4941892;29;20600;-78
2023/05/12 11:40:23;;;;;;;0.70;0.60;;;;;;;;;;4927238;29;20477;-77
2023/05/12 11:42:53;;;;;;;0.70;0.60;;;;;;;;;;4942056;29;20558;-77
2023/05/12 11:45:22;;;;;;;0.77;0.70;;;;;;;;;;4941263;28;20449;-77
2023/05/12 11:47:50;;;;;;;0.70;0.60;;;;;;;;;;4943439;29;20869;-78
2023/05/12 11:50:21;;;;;;;0.80;0.80;;;;;;;;;;4944482;28;20433;-78
2023/05/12 11:52:49;;;;;;;1.10;1.00;;;;;;;;;;4939455;29;20476;-77
2023/05/12 11:55:20;;;;;;;0.70;0.60;;;;;;;;;;4942459;28;20441;-75
2023/05/12 11:57:54;;;;;;;0.70;0.57;;;;;;;;;;4927471;29;20444;-76
2023/05/12 12:00:26;;;;;;;0.70;0.50;;;;;;;;;;4936214;29;20508;-78
2023/05/12 12:03:03;;;;;;;0.70;0.50;;;;;;;;;;4940950;29;20894;-79
2023/05/12 12:05:30;;;;;;;0.70;0.50;;;;;;;;;;4942202;29;20425;-77
2023/05/12 12:08:03;;;;;;;0.70;0.60;;;;;;;;;;4943554;28;20464;-80
2023/05/12 12:10:30;;;;;;;0.70;0.60;;;;;;;;;;4926037;29;20544;-79
2023/05/12 12:12:58;;;;;;;0.70;0.70;;;;;;;;;;4941037;29;20470;-78
2023/05/12 12:15:26;;;;;;;0.70;0.50;;;;;;;;;;4939919;29;20441;-76
2023/05/12 12:17:55;;;;;;;1.67;0.70;;;;;;;;;;4937555;29;20450;-77
2023/05/12 12:20:23;;;;;;;0.70;0.60;;;;;;;;;;4943504;28;20461;-79
2023/05/12 12:22:53;;;;;;;0.70;0.50;;;;;;;;;;4940400;29;20487;-81
2023/05/12 12:25:21;;;;;;;0.70;0.50;;;;;;;;;;4945532;29;20429;-78
2023/05/12 12:27:48;;;;;;;0.70;0.60;;;;;;;;;;4941629;29;20468;-77
2023/05/12 12:30:15;;;;;;;0.70;0.60;;;;;;;;;;4940575;29;20452;-78
2023/05/12 12:32:43;;;;;;;1.23;1.03;;;;;;;;;;4938811;29;20446;-80
2023/05/12 12:35:12;;;;;;;0.70;0.60;;;;;;;;;;4942983;29;20943;-79
2023/05/12 12:37:39;;;;;;;1.37;0.80;;;;;;;;;;4931717;29;20462;-78
2023/05/12 12:40:08;;;;;;;0.80;0.80;;;;;;;;;;4934911;29;21010;-79
2023/05/12 12:42:36;;;;;;;0.70;0.60;;;;;;;;;;4939240;29;20485;-77
2023/05/12 12:45:05;;;;;;;0.70;0.60;;;;;;;;;;4922648;29;20479;-80
2023/05/12 12:47:32;;;;;;;0.70;0.60;;;;;;;;;;4923412;29;20464;-79
2023/05/12 12:50:00;;;;;;;0.70;0.60;;;;;;;;;;4942208;29;20552;-79
2023/05/12 12:52:30;;;;;;;0.70;0.60;;;;;;;;;;4937944;29;20796;-79
2023/05/12 12:54:57;;;;;;;0.70;0.60;;;;;;;;;;4937935;29;20527;-78
2023/05/12 12:57:24;;;;;;;0.70;0.60;;;;;;;;;;4942858;29;20464;-79
2023/05/12 12:59:51;;;;;;;0.70;0.60;;;;;;;;;;4937472;29;20978;-81
2023/05/12 13:02:18;;;;;;;0.70;0.60;;;;;;;;;;4942081;29;20552;-81
2023/05/12 13:04:45;;;;;;;0.70;0.70;;;;;;;;;;4941003;29;20441;-81
2023/05/12 13:07:12;;;;;;;1.17;1.07;;;;;;;;;;4932993;28;20565;-80
2023/05/12 13:09:40;;;;;;;0.70;0.60;;;;;;;;;;4939004;29;20925;-80
2023/05/12 13:12:07;;;;;;;0.90;0.80;;;;;;;;;;4936115;29;20439;-80
2023/05/12 13:14:35;;;;;;;0.80;0.70;;;;;;;;;;4915966;29;20448;-80
2023/05/12 13:17:02;;;;;;;0.70;0.60;;;;;;;;;;4918965;29;20456;-80
2023/05/12 13:19:30;;;;;;;0.80;0.70;;;;;;;;;;4906639;29;21023;-80
2023/05/12 13:21:57;;;;;;;0.70;0.70;;;;;;;;;;4936374;29;20454;-79
2023/05/12 13:24:25;;;;;;;0.83;0.83;;;;;;;;;;4935883;29;20433;-79
2023/05/12 13:26:54;;;;;;;0.70;0.63;;;;;;;;;;4940209;29;20479;-77
2023/05/12 13:29:20;;;;;;;0.70;0.70;;;;;;;;;;4944057;28;20956;-79
2023/05/12 13:31:47;;;;;;;1.20;1.10;;;;;;;;;;4922555;29;20450;-80
2023/05/12 13:34:14;;;;;;;0.70;0.60;;;;;;;;;;4941133;29;20839;-78
2023/05/12 13:36:41;;;;;;;0.70;0.60;;;;;;;;;;4942565;28;20468;-78
2023/05/12 13:39:09;;;;;;;0.70;0.60;;;;;;;;;;4946244;28;20475;-78
2023/05/12 13:41:36;;;;;;;0.70;0.60;;;;;;;;;;4939100;29;20848;-78
2023/05/12 13:44:04;;;;;;;0.70;0.60;;;;;;;;;;4944063;29;20472;-79
2023/05/12 13:46:31;;;;;;;0.80;0.67;;;;;;;;;;4946735;29;20533;-78
2023/05/12 13:48:58;;;;;;;0.70;0.60;;;;;;;;;;4923049;29;20465;-81
2023/05/12 13:51:25;;;;;;;0.70;0.60;;;;;;;;;;4951973;28;20437;-81
2023/05/12 13:53:52;;;;;;;1.17;1.10;;;;;;;;;;4932670;29;20437;-81
2023/05/12 13:56:20;;;;;;;0.73;0.70;;;;;;;;;;4940530;29;20447;-80
2023/05/12 13:58:47;;;;;;;0.70;0.60;;;;;;;;;;4937169;28;20901;-79
2023/05/12 14:01:15;;;;;;;0.80;0.77;;;;;;;;;;4941927;29;20579;-81
2023/05/12 14:03:42;;;;;;;0.70;0.60;;;;;;;;;;4938212;29;20549;-80
2023/05/12 14:06:11;;;;;;;0.70;0.60;;;;;;;;;;4935595;29;21329;-77
2023/05/12 14:08:38;;;;;;;0.70;0.60;;;;;;;;;;4938888;28;20824;-82
2023/05/12 14:11:06;;;;;;;0.70;0.60;;;;;;;;;;4940914;28;20512;-80
2023/05/12 14:13:33;;;;;;;0.90;0.90;;;;;;;;;;4939678;29;21072;-79
2023/05/12 14:16:00;;;;;;;0.80;0.70;;;;;;;;;;4941120;29;20440;-80
2023/05/12 14:18:30;;;;;;;0.70;0.63;;;;;;;;;;4943028;29;20439;-81
2023/05/12 14:20:57;;;;;;;0.83;0.77;;;;;;;;;;4944328;29;20483;-81
2023/05/12 14:23:24;;;;;;;0.70;0.60;;;;;;;;;;4944401;29;20515;-81
2023/05/12 14:25:50;;;;;;;0.90;0.90;;;;;;;;;;4941828;29;20807;-80
2023/05/12 14:28:17;;;;;;;0.70;0.60;;;;;;;;;;4937331;29;20492;-82
2023/05/12 14:30:44;;;;;;;0.70;0.60;;;;;;;;;;4950102;29;20472;-81
2023/05/12 14:33:12;;;;;;;0.80;0.70;;;;;;;;;;4941385;29;20445;-81
2023/05/12 14:35:40;;;;;;;0.70;0.60;;;;;;;;;;4928914;29;20977;-82
2023/05/12 14:38:14;;;;;;;0.70;0.60;;;;;;;;;;4941596;29;20988;-81
2023/05/12 14:40:40;;;;;;;0.70;0.60;;;;;;;;;;4923623;29;20485;-81
2023/05/12 14:43:07;;;;;;;0.70;0.70;;;;;;;;;;4942467;29;20532;-81
2023/05/12 14:45:35;;;;;;;0.70;0.70;;;;;;;;;;4939852;29;20465;-82
2023/05/12 14:48:02;;;;;;;0.70;0.70;;;;;;;;;;4939390;29;20460;-81
2023/05/12 14:50:29;;;;;;;0.80;0.80;;;;;;;;;;4938154;29;20457;-80